Terminal Aerodrome Forecast
Issued by NWS

Home | Current Version | Previous Version | Text Only | Print | Product List | Glossary On
Versions: 1 2 3 4 5 6 7 8 9 10 11 12 13 14 15 16 17 18 19 20 21 22
000
FTUS44 KLIX 252327
TAFMSY
TAF
KMSY 252327Z 2600/2624 16009KT P6SM BKN160
     FM260800 19005KT 5SM BR BKN050
      TEMPO 2610/2613 3SM BR BKN008
     FM261300 20004KT P6SM BKN008
     FM261530 20005KT P6SM BKN060
     FM262000 17009KT P6SM SCT140=

USA.gov is the U.S. government's official web portal to all federal, state and local government web resources and services.